Time;durP1;ratioP1;P1;durP2;ratioP2;P2;SDS_P1;SDS_P2;PMS_P1;PMS_P2;Temp;Humidity;BMP_temperature;BMP_pressure;BME280_temperature;BME280_humidity;BME280_pressure;Samples;Min_cycle;Max_cycle;Signal;HPM_P1;HPM_P2
2023/08/27 00:01:14;;;;;;;3.65;2.17;;;19.00;99.90;;;;;;5000044;28;20030;-89
2023/08/27 00:03:39;;;;;;;5.68;2.35;;;19.00;99.90;;;;;;5017951;28;20026;-87
2023/08/27 00:06:05;;;;;;;5.75;2.20;;;19.00;99.90;;;;;;5000141;28;20071;-87
2023/08/27 00:08:31;;;;;;;5.90;2.40;;;19.00;99.90;;;;;;5000245;28;20026;-87
2023/08/27 00:11:00;;;;;;;6.13;2.10;;;19.00;99.90;;;;;;5000408;28;20034;-87
2023/08/27 00:13:26;;;;;;;5.20;2.50;;;19.00;99.90;;;;;;5017431;28;20041;-87
2023/08/27 00:15:52;;;;;;;4.03;2.08;;;19.10;99.90;;;;;;5000196;28;20034;-86
2023/08/27 00:18:18;;;;;;;3.85;2.05;;;19.00;99.90;;;;;;5000059;28;20033;-87
2023/08/27 00:20:48;;;;;;;4.38;1.88;;;18.90;99.90;;;;;;5000047;28;20030;-87
2023/08/27 00:23:14;;;;;;;3.40;2.20;;;18.90;99.90;;;;;;5017589;28;20037;-87
2023/08/27 00:25:40;;;;;;;5.57;2.30;;;19.00;99.90;;;;;;5000523;28;20084;-86
2023/08/27 00:28:06;;;;;;;5.47;2.40;;;19.10;99.90;;;;;;5000161;28;20379;-87
2023/08/27 00:30:32;;;;;;;7.43;2.90;;;19.00;99.90;;;;;;5016933;28;20095;-87
2023/08/27 00:32:57;;;;;;;4.72;2.30;;;19.00;99.90;;;;;;5000138;28;20026;-87
2023/08/27 00:35:24;;;;;;;7.35;2.45;;;19.00;99.90;;;;;;4998426;28;20532;-87
2023/08/27 00:37:49;;;;;;;5.38;2.28;;;18.90;99.90;;;;;;4999727;28;20069;-87
2023/08/27 00:40:15;;;;;;;4.95;2.38;;;19.00;99.90;;;;;;4999512;28;20030;-92
2023/08/27 00:42:41;;;;;;;4.18;2.55;;;18.90;99.90;;;;;;4999354;28;20029;-87
2023/08/27 00:45:08;;;;;;;4.10;2.03;;;18.80;99.90;;;;;;5016632;28;20046;-87
2023/08/27 00:47:35;;;;;;;4.43;2.22;;;18.80;99.90;;;;;;4999314;28;20486;-86
2023/08/27 00:50:02;;;;;;;4.40;2.42;;;18.90;99.90;;;;;;4999445;28;20026;-87
2023/08/27 00:52:28;;;;;;;5.78;2.47;;;18.90;99.90;;;;;;5016438;28;20116;-87
2023/08/27 00:54:55;;;;;;;4.35;2.15;;;18.90;99.90;;;;;;4999593;28;20069;-87
2023/08/27 00:57:21;;;;;;;6.68;2.38;;;18.90;99.90;;;;;;4998956;28;20093;-88
2023/08/27 00:59:47;;;;;;;3.50;1.85;;;18.90;99.90;;;;;;4999362;28;20120;-87
2023/08/27 01:02:15;;;;;;;4.03;2.05;;;18.90;99.90;;;;;;4999191;28;20037;-87
2023/08/27 01:04:40;;;;;;;5.70;2.25;;;18.90;99.90;;;;;;5016383;28;20032;-87
2023/08/27 01:07:14;;;;;;;5.35;1.98;;;18.90;99.90;;;;;;4998948;28;20026;-87
2023/08/27 01:10:20;;;;;;;7.38;2.08;;;18.80;99.90;;;;;;4998417;28;20026;-87
2023/08/27 01:13:03;;;;;;;3.10;2.30;;;18.80;99.90;;;;;;4961755;28;20048;-87
2023/08/27 01:15:29;;;;;;;6.95;2.10;;;18.90;99.90;;;;;;4998604;28;20121;-87
2023/08/27 01:17:57;;;;;;;5.43;2.30;;;18.80;99.90;;;;;;4999006;28;20076;-86
2023/08/27 01:20:23;;;;;;;6.95;2.47;;;18.80;99.90;;;;;;4998597;28;20486;-87
2023/08/27 01:22:49;;;;;;;6.55;2.47;;;18.80;99.90;;;;;;4998643;28;20084;-87
2023/08/27 01:25:18;;;;;;;6.22;2.60;;;18.80;99.90;;;;;;4998932;28;20080;-87
2023/08/27 01:28:11;;;;;;;6.82;2.13;;;18.80;99.90;;;;;;4998521;28;20116;-87
2023/08/27 01:30:55;;;;;;;8.68;2.35;;;18.80;99.90;;;;;;4998617;28;20029;-85
2023/08/27 01:33:28;;;;;;;11.52;2.40;;;18.90;99.90;;;;;;4998499;28;20029;-87
2023/08/27 01:35:55;;;;;;;6.30;2.15;;;18.80;99.90;;;;;;4998568;28;20117;-87
2023/08/27 01:38:21;;;;;;;4.13;2.45;;;18.90;99.90;;;;;;4998024;28;20032;-87
2023/08/27 01:40:47;;;;;;;5.18;2.38;;;18.90;99.90;;;;;;4998656;28;20030;-87
2023/08/27 01:43:13;;;;;;;7.88;2.08;;;18.90;99.90;;;;;;5015847;28;20034;-87
2023/08/27 01:45:38;;;;;;;4.07;2.13;;;18.90;99.90;;;;;;4997699;28;20459;-87
2023/08/27 01:48:04;;;;;;;6.75;2.45;;;18.90;99.90;;;;;;5015641;28;20021;-87
2023/08/27 01:50:32;;;;;;;5.55;2.42;;;18.90;99.90;;;;;;4997828;28;20100;-87
2023/08/27 01:52:58;;;;;;;4.80;2.00;;;18.90;99.90;;;;;;4998534;28;20149;-87
2023/08/27 01:55:23;;;;;;;4.80;2.47;;;18.80;99.90;;;;;;4998344;28;20058;-87
2023/08/27 01:57:49;;;;;;;5.85;2.47;;;18.80;99.90;;;;;;4998543;28;20507;-87
2023/08/27 02:00:16;;;;;;;5.57;2.00;;;18.80;99.90;;;;;;5015329;28;20482;-87
2023/08/27 02:02:43;;;;;;;4.10;2.38;;;18.70;99.90;;;;;;4997729;28;20190;-87
2023/08/27 02:05:09;;;;;;;4.53;2.13;;;18.80;99.90;;;;;;4998065;28;20025;-87
2023/08/27 02:07:37;;;;;;;4.20;2.10;;;18.80;99.90;;;;;;4997517;28;20116;-87
2023/08/27 02:10:04;;;;;;;10.23;2.17;;;18.70;99.90;;;;;;4998177;28;20034;-86
2023/08/27 02:12:29;;;;;;;10.70;2.63;;;18.70;99.90;;;;;;4997540;28;20141;-86
2023/08/27 02:14:55;;;;;;;7.43;2.30;;;18.70;99.90;;;;;;5015394;28;20479;-86
2023/08/27 02:17:21;;;;;;;7.60;1.95;;;18.70;99.90;;;;;;4998244;28;20111;-86
2023/08/27 02:19:47;;;;;;;6.00;2.47;;;18.70;99.90;;;;;;5004893;28;20033;-87
2023/08/27 02:22:13;;;;;;;6.20;2.30;;;18.70;99.90;;;;;;5003814;28;20091;-86
2023/08/27 02:24:38;;;;;;;6.70;2.42;;;18.70;99.90;;;;;;5003581;28;20120;-86
2023/08/27 02:27:04;;;;;;;3.38;2.30;;;18.80;99.90;;;;;;5006024;28;20026;-87
2023/08/27 02:29:29;;;;;;;5.10;2.25;;;18.80;99.90;;;;;;5006739;28;20030;-86
2023/08/27 02:31:55;;;;;;;8.20;2.30;;;18.80;99.90;;;;;;5010204;28;20040;-86
2023/08/27 02:34:21;;;;;;;7.43;2.40;;;18.80;99.90;;;;;;5009116;28;20485;-87
2023/08/27 02:36:46;;;;;;;8.15;2.30;;;18.80;99.90;;;;;;5023908;28;20104;-86
2023/08/27 02:39:12;;;;;;;5.32;2.30;;;18.70;99.90;;;;;;5026363;28;20025;-87
2023/08/27 02:41:38;;;;;;;3.95;2.20;;;18.70;99.90;;;;;;5005911;28;20037;-86
2023/08/27 02:44:03;;;;;;;3.30;2.17;;;18.70;99.90;;;;;;5006692;28;20034;-85
2023/08/27 02:46:30;;;;;;;4.80;2.25;;;18.70;99.90;;;;;;5025027;28;20049;-85
2023/08/27 02:49:00;;;;;;;4.50;2.10;;;18.70;99.90;;;;;;5019672;28;20032;-86
2023/08/27 02:51:28;;;;;;;4.78;2.10;;;18.70;99.90;;;;;;4998044;28;20382;-85
2023/08/27 02:53:53;;;;;;;6.35;2.55;;;18.70;99.90;;;;;;4974204;28;20034;-86
2023/08/27 02:56:24;;;;;;;6.85;2.28;;;18.70;99.90;;;;;;4957893;28;20030;-86
2023/08/27 02:58:50;;;;;;;2.65;2.13;;;18.70;99.90;;;;;;4957178;28;20041;-86
2023/08/27 03:01:20;;;;;;;6.35;2.38;;;18.70;99.90;;;;;;4957797;28;20035;-86
2023/08/27 03:03:49;;;;;;;5.03;2.63;;;18.60;99.90;;;;;;4957429;28;20118;-86
2023/08/27 03:06:17;;;;;;;5.35;2.38;;;18.50;99.90;;;;;;4941930;28;20051;-86
2023/08/27 03:08:46;;;;;;;5.53;2.38;;;18.60;99.90;;;;;;4973601;28;20488;-85
2023/08/27 03:11:21;;;;;;;5.22;2.22;;;18.60;99.90;;;;;;4954480;29;20039;-86
2023/08/27 03:13:52;;;;;;;5.35;2.35;;;18.60;99.90;;;;;;4938590;29;20138;-86
2023/08/27 03:16:20;;;;;;;6.88;2.15;;;18.70;99.90;;;;;;4919673;29;20052;-86
2023/08/27 03:18:47;;;;;;;4.32;1.98;;;18.70;99.90;;;;;;4935562;29;20032;-86
2023/08/27 03:21:14;;;;;;;6.28;2.25;;;18.70;99.90;;;;;;4919913;29;20039;-87
2023/08/27 03:23:40;;;;;;;4.70;2.20;;;18.60;99.90;;;;;;4897339;29;20037;-87
2023/08/27 03:26:08;;;;;;;7.90;1.90;;;18.60;99.90;;;;;;4881612;29;20051;-85
2023/08/27 03:28:34;;;;;;;4.72;2.05;;;18.60;99.90;;;;;;4878643;29;20041;-86
2023/08/27 03:31:03;;;;;;;3.63;1.73;;;18.60;99.90;;;;;;4885382;29;20037;-86
2023/08/27 03:33:31;;;;;;;6.65;2.67;;;18.60;99.90;;;;;;4881847;29;20081;-86
2023/08/27 03:35:59;;;;;;;4.65;2.65;;;18.60;99.90;;;;;;4881707;29;20052;-86
2023/08/27 03:38:26;;;;;;;8.57;2.28;;;18.50;99.90;;;;;;4881940;29;20048;-86
2023/08/27 03:40:53;;;;;;;4.85;2.83;;;18.50;99.90;;;;;;4897241;29;20036;-86
2023/08/27 03:43:20;;;;;;;6.50;2.28;;;18.50;99.90;;;;;;4897380;29;20096;-88
2023/08/27 03:45:48;;;;;;;8.43;2.53;;;18.60;99.90;;;;;;4881211;29;20053;-86
2023/08/27 03:48:18;;;;;;;6.43;2.60;;;18.60;99.90;;;;;;4898430;29;20044;-87
2023/08/27 03:50:48;;;;;;;5.45;2.30;;;18.60;99.90;;;;;;4899951;29;20044;-87
2023/08/27 03:53:15;;;;;;;8.75;2.30;;;18.50;99.90;;;;;;4916017;29;20036;-87
2023/08/27 03:55:43;;;;;;;6.45;2.40;;;18.50;99.90;;;;;;4884422;29;20131;-86
2023/08/27 03:58:10;;;;;;;6.22;2.10;;;18.60;99.90;;;;;;4900185;29;20028;-87
2023/08/27 04:00:36;;;;;;;7.90;1.90;;;18.60;99.90;;;;;;4935242;29;20039;-86
2023/08/27 04:03:05;;;;;;;5.93;2.10;;;18.60;99.90;;;;;;4954288;29;20027;-87
2023/08/27 04:05:36;;;;;;;3.40;2.03;;;18.60;99.90;;;;;;4953791;29;20067;-87
2023/08/27 04:08:03;;;;;;;4.70;3.05;;;18.50;99.90;;;;;;4954399;29;20027;-87
2023/08/27 04:10:29;;;;;;;7.13;1.98;;;18.50;99.90;;;;;;4956514;28;20246;-88
2023/08/27 04:12:56;;;;;;;4.10;2.42;;;18.40;99.90;;;;;;4962329;28;20520;-87
2023/08/27 04:15:22;;;;;;;8.73;2.70;;;18.50;99.90;;;;;;5000965;28;20022;-87
2023/08/27 04:17:51;;;;;;;10.88;2.47;;;18.40;99.90;;;;;;5018067;28;20026;-87
2023/08/27 04:20:19;;;;;;;6.78;2.35;;;18.40;99.90;;;;;;4984548;28;20038;-87
2023/08/27 04:22:45;;;;;;;4.97;2.40;;;18.50;99.90;;;;;;5000268;28;20058;-86
2023/08/27 04:25:14;;;;;;;6.53;2.20;;;18.60;99.90;;;;;;4983640;28;20034;-86
2023/08/27 04:27:43;;;;;;;4.15;2.05;;;18.60;99.90;;;;;;5017214;28;20501;-85
2023/08/27 04:30:11;;;;;;;5.60;2.05;;;18.60;99.90;;;;;;4999829;28;20490;-86
2023/08/27 04:32:36;;;;;;;6.13;2.22;;;18.60;99.90;;;;;;5000050;28;20034;-87
2023/08/27 04:35:10;;;;;;;8.18;2.28;;;18.60;99.90;;;;;;5000240;28;20033;-86
2023/08/27 04:37:38;;;;;;;5.70;2.70;;;18.50;99.90;;;;;;4999733;28;20034;-86
2023/08/27 04:40:06;;;;;;;3.00;2.13;;;18.50;99.90;;;;;;4999968;28;20038;-86
2023/08/27 04:42:35;;;;;;;6.00;2.53;;;18.50;99.90;;;;;;4979085;28;20050;-87
2023/08/27 04:45:00;;;;;;;4.85;2.30;;;18.60;99.90;;;;;;4995143;28;20444;-86
2023/08/27 04:47:27;;;;;;;5.13;2.30;;;18.70;99.90;;;;;;4979114;28;20124;-86
2023/08/27 04:49:53;;;;;;;4.53;2.40;;;18.70;99.90;;;;;;4978456;28;20101;-86
2023/08/27 04:52:18;;;;;;;6.25;2.35;;;18.70;99.90;;;;;;4979190;28;20057;-87
2023/08/27 04:54:44;;;;;;;4.60;2.45;;;18.60;99.90;;;;;;4978577;28;20146;-86
2023/08/27 04:57:10;;;;;;;3.53;2.13;;;18.60;99.90;;;;;;4978812;28;20042;-87
2023/08/27 04:59:35;;;;;;;8.52;2.60;;;18.60;99.90;;;;;;4978664;28;20037;-86
2023/08/27 05:02:01;;;;;;;4.72;2.50;;;18.60;99.90;;;;;;4994800;28;20042;-87
2023/08/27 05:04:30;;;;;;;5.10;2.40;;;18.60;99.90;;;;;;4978581;28;20058;-86
2023/08/27 05:06:55;;;;;;;7.05;2.38;;;18.50;99.90;;;;;;4994614;28;20120;-87
2023/08/27 05:09:21;;;;;;;6.88;2.30;;;18.50;99.90;;;;;;4978665;28;20065;-87
2023/08/27 05:11:46;;;;;;;6.72;2.08;;;18.50;99.90;;;;;;4994647;28;20434;-86
2023/08/27 05:14:12;;;;;;;5.75;2.35;;;18.50;99.90;;;;;;4994817;28;20559;-86
2023/08/27 05:16:37;;;;;;;2.78;2.10;;;18.40;99.90;;;;;;5016294;28;20026;-87
2023/08/27 05:19:03;;;;;;;3.90;2.25;;;18.40;99.90;;;;;;4999521;28;20034;-87
2023/08/27 05:21:29;;;;;;;4.45;2.50;;;18.40;99.90;;;;;;4998597;28;20463;-86
2023/08/27 05:23:54;;;;;;;4.40;2.05;;;18.40;99.90;;;;;;4998882;28;20421;-86
2023/08/27 05:26:20;;;;;;;7.32;2.05;;;18.40;99.90;;;;;;4999070;28;20062;-86
2023/08/27 05:28:45;;;;;;;5.85;2.30;;;18.50;99.90;;;;;;4998645;28;20579;-86
2023/08/27 05:31:11;;;;;;;3.97;2.00;;;18.50;99.90;;;;;;4999278;28;20033;-86
2023/08/27 05:33:37;;;;;;;5.65;2.58;;;18.60;99.90;;;;;;4998522;28;20040;-87
2023/08/27 05:36:02;;;;;;;4.78;2.17;;;18.50;99.90;;;;;;4999259;28;20034;-86
2023/08/27 05:38:28;;;;;;;3.80;2.03;;;18.50;99.90;;;;;;4999051;28;20057;-87
2023/08/27 05:40:54;;;;;;;5.00;2.22;;;18.50;99.90;;;;;;4998161;28;20029;-87
2023/08/27 05:43:19;;;;;;;2.78;2.20;;;18.40;99.90;;;;;;4998890;28;20120;-87
2023/08/27 05:45:45;;;;;;;6.35;1.95;;;18.50;99.90;;;;;;4998094;28;20497;-87
2023/08/27 05:48:10;;;;;;;3.38;2.00;;;18.50;99.90;;;;;;4998474;28;20030;-87
2023/08/27 05:50:36;;;;;;;2.83;2.05;;;18.60;99.90;;;;;;5015328;28;20106;-87
2023/08/27 05:53:03;;;;;;;3.50;2.10;;;18.60;99.90;;;;;;4998428;28;20034;-87
2023/08/27 05:55:29;;;;;;;4.47;2.22;;;18.60;99.90;;;;;;4998322;28;20069;-87
2023/08/27 05:57:55;;;;;;;4.43;2.17;;;18.60;99.90;;;;;;4997899;28;20034;-88
2023/08/27 06:00:20;;;;;;;5.47;2.15;;;18.60;99.90;;;;;;4998245;28;20049;-87
2023/08/27 06:02:46;;;;;;;5.53;1.98;;;18.60;99.90;;;;;;5015093;28;20029;-87
2023/08/27 06:05:11;;;;;;;5.70;1.90;;;18.60;99.90;;;;;;4998271;28;20030;-86
2023/08/27 06:07:37;;;;;;;5.60;1.98;;;18.70;99.90;;;;;;4997415;28;20482;-87
2023/08/27 06:10:03;;;;;;;5.50;2.20;;;18.70;99.90;;;;;;4997890;28;20033;-86
2023/08/27 06:12:29;;;;;;;4.70;2.17;;;18.70;99.90;;;;;;4998079;28;20528;-87
2023/08/27 06:14:54;;;;;;;6.07;2.22;;;18.80;99.90;;;;;;4997797;28;20080;-86
2023/08/27 06:17:20;;;;;;;4.68;1.92;;;18.80;99.90;;;;;;4998093;28;20030;-86
2023/08/27 06:19:45;;;;;;;7.38;2.55;;;18.80;99.90;;;;;;4997678;28;20391;-87
2023/08/27 06:22:11;;;;;;;4.13;2.10;;;18.80;99.90;;;;;;4997166;28;20467;-87
2023/08/27 06:24:36;;;;;;;7.93;2.40;;;18.80;99.90;;;;;;4997312;28;20030;-88
2023/08/27 06:27:02;;;;;;;5.50;2.08;;;18.80;99.90;;;;;;5015002;28;20040;-87
2023/08/27 06:29:28;;;;;;;4.80;2.00;;;18.80;99.90;;;;;;4997686;28;20045;-87
2023/08/27 06:31:53;;;;;;;4.82;1.90;;;18.80;99.90;;;;;;4997250;28;20030;-85
2023/08/27 06:34:19;;;;;;;5.70;2.00;;;18.90;99.90;;;;;;4997180;28;20413;-86
2023/08/27 06:36:45;;;;;;;6.57;2.08;;;18.90;99.90;;;;;;4997567;28;20033;-85
2023/08/27 06:39:18;;;;;;;4.85;2.17;;;18.90;99.90;;;;;;4997482;28;20026;-86
2023/08/27 06:41:43;;;;;;;7.93;2.25;;;18.80;99.90;;;;;;4997199;28;20034;-85
2023/08/27 06:44:09;;;;;;;5.10;2.22;;;18.80;99.90;;;;;;4997725;28;20132;-85
2023/08/27 06:46:34;;;;;;;4.45;2.20;;;18.80;99.90;;;;;;5014730;28;20054;-85
2023/08/27 06:49:00;;;;;;;5.13;2.35;;;18.70;99.90;;;;;;4997024;28;20030;-85
2023/08/27 06:51:27;;;;;;;4.82;2.50;;;18.80;99.90;;;;;;5014640;28;20026;-85
2023/08/27 06:53:53;;;;;;;8.60;2.58;;;18.80;99.90;;;;;;4997288;28;20041;-85
2023/08/27 06:56:18;;;;;;;4.38;2.38;;;18.90;99.90;;;;;;4997981;28;20029;-85
2023/08/27 06:58:44;;;;;;;6.00;2.67;;;18.90;99.90;;;;;;4997070;28;20089;-86
2023/08/27 07:01:09;;;;;;;5.30;2.90;;;18.90;99.90;;;;;;5014566;28;20026;-86
2023/08/27 07:03:36;;;;;;;6.63;2.28;;;18.80;99.90;;;;;;4997403;28;20477;-86
2023/08/27 07:06:05;;;;;;;5.65;2.25;;;18.80;99.90;;;;;;4996745;28;20064;-86
2023/08/27 07:08:30;;;;;;;5.53;2.15;;;18.80;99.90;;;;;;4996617;28;20041;-89
2023/08/27 07:10:56;;;;;;;4.13;2.10;;;18.80;99.90;;;;;;4996484;28;20120;-85
2023/08/27 07:13:22;;;;;;;5.10;2.75;;;18.90;99.90;;;;;;4996884;28;20120;-86
2023/08/27 07:15:47;;;;;;;7.55;3.08;;;19.00;99.90;;;;;;4996631;28;20026;-87
2023/08/27 07:18:15;;;;;;;6.38;3.95;;;19.10;99.90;;;;;;4997298;28;20030;-87
2023/08/27 07:20:41;;;;;;;8.27;3.53;;;19.10;99.90;;;;;;4997051;28;20034;-89
2023/08/27 07:23:06;;;;;;;5.32;2.90;;;19.10;99.90;;;;;;4983626;28;20118;-87
2023/08/27 07:25:34;;;;;;;12.00;3.63;;;19.20;99.90;;;;;;4977182;28;20041;-86
2023/08/27 07:27:59;;;;;;;3.78;2.97;;;19.30;99.90;;;;;;4977321;28;20154;-86
2023/08/27 07:30:25;;;;;;;9.80;3.20;;;19.30;99.90;;;;;;4977357;28;20030;-86
2023/08/27 07:32:51;;;;;;;7.93;3.53;;;19.40;99.90;;;;;;4977089;28;20027;-85
2023/08/27 07:35:17;;;;;;;8.50;3.17;;;19.40;99.90;;;;;;4994655;28;20022;-86
2023/08/27 07:37:43;;;;;;;7.00;2.92;;;19.40;99.90;;;;;;4976924;28;20042;-86
2023/08/27 07:40:09;;;;;;;7.65;3.10;;;19.40;99.90;;;;;;4977307;28;20034;-86
2023/08/27 07:42:35;;;;;;;7.28;3.42;;;19.40;99.90;;;;;;4977221;28;20081;-85
2023/08/27 07:45:01;;;;;;;6.82;3.70;;;19.50;99.90;;;;;;4995524;28;20054;-85
2023/08/27 07:47:27;;;;;;;6.70;3.17;;;19.50;99.90;;;;;;4981144;28;20113;-86
2023/08/27 07:49:53;;;;;;;7.35;3.30;;;19.50;99.90;;;;;;4982442;28;20114;-88
2023/08/27 07:52:18;;;;;;;6.20;3.40;;;19.50;99.90;;;;;;4981814;28;20037;-86
2023/08/27 07:54:44;;;;;;;4.78;3.00;;;19.60;99.90;;;;;;4983288;28;20018;-85
2023/08/27 07:57:10;;;;;;;6.18;3.40;;;19.60;99.90;;;;;;5004649;28;20035;-87
2023/08/27 07:59:35;;;;;;;5.70;2.80;;;19.60;99.90;;;;;;4985878;28;20022;-87
2023/08/27 08:02:01;;;;;;;5.65;3.72;;;19.70;99.90;;;;;;4984893;28;20252;-86
2023/08/27 08:04:26;;;;;;;4.50;3.03;;;19.60;99.90;;;;;;5000888;28;20444;-85
2023/08/27 08:06:53;;;;;;;9.10;3.45;;;19.60;99.90;;;;;;4981864;28;20022;-86
2023/08/27 08:09:18;;;;;;;6.38;3.90;;;19.60;99.90;;;;;;4982085;28;20122;-85
2023/08/27 08:11:44;;;;;;;7.10;3.65;;;19.70;99.90;;;;;;4999343;28;20118;-85
2023/08/27 08:14:09;;;;;;;6.57;3.45;;;19.70;99.90;;;;;;4991086;28;20080;-86
2023/08/27 08:16:35;;;;;;;6.22;2.95;;;19.70;99.90;;;;;;5003524;28;20030;-86
2023/08/27 08:19:01;;;;;;;7.63;3.17;;;19.80;99.90;;;;;;5002617;28;20037;-85
2023/08/27 08:21:26;;;;;;;7.65;3.92;;;19.80;99.90;;;;;;5001896;28;20037;-86
2023/08/27 08:23:52;;;;;;;6.63;3.00;;;19.80;99.90;;;;;;5017519;28;20022;-87
2023/08/27 08:26:18;;;;;;;5.13;3.15;;;19.80;99.90;;;;;;4999853;28;20037;-85
2023/08/27 08:28:43;;;;;;;7.43;3.10;;;19.90;99.90;;;;;;4999738;28;20501;-96
2023/08/27 08:31:09;;;;;;;7.40;3.15;;;19.80;99.90;;;;;;4999628;28;20069;-87
2023/08/27 08:33:35;;;;;;;4.60;3.00;;;19.80;99.90;;;;;;5017085;28;20037;-87
2023/08/27 08:36:00;;;;;;;4.63;2.75;;;19.80;99.90;;;;;;5017031;28;20022;-86
2023/08/27 08:38:26;;;;;;;5.22;2.53;;;19.80;99.90;;;;;;4999746;28;20033;-85
2023/08/27 08:40:58;;;;;;;5.43;2.53;;;19.80;99.90;;;;;;4999235;28;20026;-89
2023/08/27 08:43:24;;;;;;;5.75;2.90;;;19.90;99.90;;;;;;5001180;28;20029;-90
2023/08/27 08:46:03;;;;;;;5.22;2.72;;;20.00;99.90;;;;;;4999240;28;20074;-88
2023/08/27 08:48:41;;;;;;;4.35;2.45;;;20.10;99.90;;;;;;4999610;28;20022;-87
2023/08/27 08:51:09;;;;;;;6.45;2.88;;;20.00;99.90;;;;;;4998764;28;20076;-86
2023/08/27 08:53:40;;;;;;;6.60;3.00;;;20.20;99.90;;;;;;4999198;28;20114;-92
2023/08/27 08:56:14;;;;;;;6.97;2.67;;;20.20;99.90;;;;;;4997836;28;20153;-87
2023/08/27 08:58:44;;;;;;;4.38;2.53;;;20.30;99.90;;;;;;4999344;28;20030;-88
2023/08/27 09:01:10;;;;;;;7.68;2.70;;;20.30;99.90;;;;;;4998351;28;20042;-86
2023/08/27 09:03:37;;;;;;;5.68;2.65;;;20.30;99.90;;;;;;4999363;28;20490;-86
2023/08/27 09:06:03;;;;;;;4.50;2.53;;;20.30;99.90;;;;;;4998140;28;20463;-87
2023/08/27 09:08:31;;;;;;;5.05;2.72;;;20.30;99.90;;;;;;4998717;28;20084;-89
2023/08/27 09:10:57;;;;;;;6.05;2.42;;;20.30;99.90;;;;;;5015457;28;20064;-87
2023/08/27 09:13:22;;;;;;;5.40;2.35;;;20.30;99.90;;;;;;5015851;28;20034;-89
2023/08/27 09:15:49;;;;;;;5.38;1.77;;;20.30;99.90;;;;;;4998630;28;20033;-93
2023/08/27 09:18:15;;;;;;;5.80;2.08;;;20.30;99.90;;;;;;5015822;28;20491;-88
2023/08/27 09:20:42;;;;;;;5.70;2.40;;;20.30;99.90;;;;;;5015684;28;20501;-88
2023/08/27 09:23:09;;;;;;;4.68;2.03;;;20.30;99.90;;;;;;4997790;28;20117;-85
2023/08/27 09:25:36;;;;;;;6.25;2.10;;;20.40;99.90;;;;;;4998160;28;20045;-86
2023/08/27 09:28:01;;;;;;;4.50;1.92;;;20.50;99.90;;;;;;5014873;28;20022;-86
2023/08/27 09:30:27;;;;;;;4.38;2.08;;;20.50;99.90;;;;;;4998516;28;20041;-88
2023/08/27 09:32:54;;;;;;;4.13;1.92;;;20.50;99.90;;;;;;5015533;28;20030;-89
2023/08/27 09:35:19;;;;;;;5.38;2.20;;;20.40;99.90;;;;;;4998435;28;20034;-86
2023/08/27 09:37:46;;;;;;;3.13;2.13;;;20.40;99.90;;;;;;5016006;28;20026;-85
2023/08/27 09:40:16;;;;;;;2.97;2.10;;;20.40;99.90;;;;;;4998802;28;20036;-86
2023/08/27 09:42:43;;;;;;;4.20;2.10;;;20.40;99.90;;;;;;4998723;28;20049;-87
2023/08/27 09:45:09;;;;;;;5.60;2.60;;;20.40;99.90;;;;;;5016288;28;20054;-90
2023/08/27 09:47:37;;;;;;;5.35;2.20;;;20.50;99.90;;;;;;4998713;28;20030;-90
2023/08/27 09:50:06;;;;;;;4.85;1.92;;;20.60;99.90;;;;;;5015395;28;20058;-89
2023/08/27 09:52:32;;;;;;;4.97;1.90;;;20.70;99.90;;;;;;4998063;28;20479;-89
2023/08/27 09:54:58;;;;;;;6.25;2.10;;;20.70;99.90;;;;;;4997622;28;20026;-87
2023/08/27 09:57:24;;;;;;;7.32;2.20;;;20.80;99.90;;;;;;4998207;28;20077;-87
2023/08/27 09:59:50;;;;;;;7.35;3.53;;;20.90;99.90;;;;;;4998069;28;20431;-91
2023/08/27 10:02:16;;;;;;;5.38;2.13;;;21.00;99.90;;;;;;4997934;28;20034;-85
2023/08/27 10:04:49;;;;;;;3.13;1.85;;;21.00;99.90;;;;;;4998031;28;20030;-89
2023/08/27 10:07:16;;;;;;;6.05;1.80;;;21.10;99.90;;;;;;4997985;28;20030;-89
2023/08/27 10:09:42;;;;;;;5.97;2.30;;;21.10;99.90;;;;;;5015466;28;20034;-89
2023/08/27 10:12:11;;;;;;;5.88;2.20;;;21.10;99.90;;;;;;4997709;28;20033;-88
2023/08/27 10:14:40;;;;;;;5.05;1.90;;;21.10;99.90;;;;;;5015309;28;20026;-88
2023/08/27 10:17:06;;;;;;;5.25;1.98;;;21.30;99.90;;;;;;4997900;28;20030;-89
2023/08/27 10:19:36;;;;;;;4.95;2.00;;;21.40;99.90;;;;;;5015556;28;20026;-89
2023/08/27 10:22:06;;;;;;;5.18;1.73;;;21.40;99.90;;;;;;4997656;28;20036;-89
2023/08/27 10:24:33;;;;;;;5.65;1.88;;;21.50;99.90;;;;;;4997739;28;20022;-89
2023/08/27 10:27:00;;;;;;;3.47;1.65;;;21.50;99.90;;;;;;4997427;28;20111;-86
2023/08/27 10:29:27;;;;;;;4.53;1.88;;;21.60;99.90;;;;;;4997692;28;20475;-85
2023/08/27 10:31:53;;;;;;;3.08;1.90;;;21.60;99.90;;;;;;4997498;28;20434;-87
2023/08/27 10:34:23;;;;;;;3.25;1.88;;;21.70;99.90;;;;;;4997736;28;20034;-86
2023/08/27 10:36:51;;;;;;;2.60;1.90;;;21.70;99.90;;;;;;5015220;28;20018;-87
2023/08/27 10:39:20;;;;;;;3.35;1.75;;;21.70;99.90;;;;;;4997760;28;20022;-88
2023/08/27 10:41:46;;;;;;;5.25;1.88;;;21.70;99.90;;;;;;4997797;28;20034;-85
2023/08/27 10:44:21;;;;;;;2.45;1.42;;;21.80;99.90;;;;;;4996979;28;20044;-83
2023/08/27 10:47:08;;;;;;;2.65;1.60;;;21.70;99.90;;;;;;4997436;28;20056;-84
2023/08/27 10:49:38;;;;;;;2.97;1.70;;;21.70;99.90;;;;;;4997577;28;20406;-85
2023/08/27 10:52:20;;;;;;;3.42;1.60;;;21.80;99.90;;;;;;4997214;28;20479;-85
2023/08/27 10:55:01;;;;;;;2.70;1.77;;;21.80;99.90;;;;;;4997500;28;20084;-86
2023/08/27 10:57:26;;;;;;;2.80;1.65;;;21.80;99.90;;;;;;4997154;28;20092;-84
2023/08/27 11:00:06;;;;;;;6.65;2.10;;;21.80;99.90;;;;;;5014158;28;20034;-86
2023/08/27 11:03:12;;;;;;;2.05;1.70;;;21.90;99.90;;;;;;4997081;28;20356;-84
2023/08/27 11:05:38;;;;;;;5.70;1.75;;;22.00;99.90;;;;;;4997328;28;20509;-84
2023/08/27 11:08:16;;;;;;;4.82;1.70;;;22.00;99.90;;;;;;5014159;28;20033;-87
2023/08/27 11:10:42;;;;;;;1.90;1.40;;;22.00;99.90;;;;;;4997484;28;20033;-85
2023/08/27 11:13:36;;;;;;;4.28;2.20;;;22.00;99.90;;;;;;4996610;28;20164;-85
2023/08/27 11:16:15;;;;;;;4.13;1.58;;;22.00;99.90;;;;;;4996958;28;20034;-84
2023/08/27 11:18:47;;;;;;;5.45;1.50;;;22.10;99.90;;;;;;4998283;28;20030;-85
2023/08/27 11:21:38;;;;;;;3.83;1.38;;;22.10;99.90;;;;;;5003490;28;20369;-86
2023/08/27 11:24:24;;;;;;;1.83;1.27;;;22.30;99.90;;;;;;5020697;28;20030;-85
2023/08/27 11:26:52;;;;;;;3.85;1.40;;;22.30;99.90;;;;;;5021219;28;20061;-86
2023/08/27 11:29:22;;;;;;;2.95;1.48;;;22.40;99.90;;;;;;5020582;28;20357;-85
2023/08/27 11:31:48;;;;;;;3.55;1.38;;;22.40;99.90;;;;;;5003431;28;20467;-84
2023/08/27 11:34:15;;;;;;;4.25;1.50;;;22.40;99.90;;;;;;5003207;28;20041;-85
2023/08/27 11:36:43;;;;;;;3.58;1.50;;;22.40;99.90;;;;;;5003869;28;20029;-85
2023/08/27 11:39:12;;;;;;;2.58;1.50;;;22.50;99.90;;;;;;5003387;28;20124;-85
2023/08/27 11:41:40;;;;;;;2.03;1.52;;;22.60;99.90;;;;;;5020404;28;20117;-85
2023/08/27 11:44:07;;;;;;;4.75;1.45;;;22.60;99.90;;;;;;5002793;28;20030;-85
2023/08/27 11:46:33;;;;;;;2.78;1.30;;;22.50;99.90;;;;;;5003229;28;20053;-86
2023/08/27 11:48:59;;;;;;;3.15;1.35;;;22.40;99.90;;;;;;5020386;28;20460;-90
2023/08/27 11:51:25;;;;;;;3.10;1.50;;;22.50;99.90;;;;;;5020887;28;20080;-85
2023/08/27 11:53:52;;;;;;;3.42;1.42;;;22.40;99.90;;;;;;5020910;28;20040;-85
2023/08/27 11:56:18;;;;;;;4.88;1.60;;;22.50;99.90;;;;;;5020198;28;20080;-85
2023/08/27 11:58:48;;;;;;;3.72;1.63;;;22.50;99.90;;;;;;5003515;28;20038;-84
2023/08/27 12:01:15;;;;;;;3.28;1.40;;;22.50;99.90;;;;;;5002942;28;20044;-85
2023/08/27 12:03:43;;;;;;;4.75;1.83;;;22.60;99.90;;;;;;5003071;28;20026;-85
2023/08/27 12:06:30;;;;;;;5.20;1.40;;;22.80;99.90;;;;;;5019847;28;20030;-87
2023/08/27 12:08:56;;;;;;;1.88;1.48;;;22.70;99.90;;;;;;5003054;28;20048;-85
2023/08/27 12:11:27;;;;;;;2.38;1.63;;;22.70;99.90;;;;;;5002901;28;20034;-85
2023/08/27 12:13:58;;;;;;;5.25;1.30;;;22.80;99.90;;;;;;5002936;28;20582;-86
2023/08/27 12:16:31;;;;;;;2.03;1.40;;;22.90;99.90;;;;;;5020501;28;20041;-85
2023/08/27 12:19:03;;;;;;;2.58;1.45;;;23.00;99.90;;;;;;5003020;28;20414;-87
2023/08/27 12:21:45;;;;;;;5.85;1.90;;;22.90;99.90;;;;;;5020399;28;20107;-88
2023/08/27 12:24:35;;;;;;;4.40;1.50;;;22.80;99.90;;;;;;5002432;28;20030;-85
2023/08/27 12:27:02;;;;;;;2.40;1.70;;;22.70;99.90;;;;;;5002546;28;20032;-90
2023/08/27 12:29:37;;;;;;;5.15;1.63;;;22.80;99.90;;;;;;5002785;28;20034;-88
2023/08/27 12:32:10;;;;;;;2.08;1.48;;;22.90;99.90;;;;;;4999613;28;20463;-88
2023/08/27 12:34:41;;;;;;;3.72;1.40;;;22.90;99.90;;;;;;5000112;28;20025;-89
2023/08/27 12:37:09;;;;;;;3.33;1.45;;;22.70;99.90;;;;;;4999736;28;20072;-88
2023/08/27 12:39:37;;;;;;;2.35;1.48;;;22.50;99.90;;;;;;4999821;28;20022;-88
2023/08/27 12:42:04;;;;;;;3.33;1.60;;;22.40;99.90;;;;;;4999516;28;20021;-90
2023/08/27 12:44:29;;;;;;;2.47;1.70;;;22.30;99.90;;;;;;4999432;28;20026;-88
2023/08/27 12:46:55;;;;;;;2.15;1.45;;;22.30;99.90;;;;;;4999631;28;20022;-88
2023/08/27 12:49:21;;;;;;;3.25;1.60;;;22.20;99.90;;;;;;5016729;28;20064;-88